Time;durP1;ratioP1;P1;durP2;ratioP2;P2;SDS_P1;SDS_P2;PMS_P1;PMS_P2;Temp;Humidity;BMP_temperature;BMP_pressure;BME280_temperature;BME280_humidity;BME280_pressure;Samples;Min_cycle;Max_cycle;Signal;HPM_P1;HPM_P2
2021/05/25 00:02:12;;;;;;;;;2.00;1.00;;;;;9.70;64.39;100938.50;5061918;28;46107;-52
2021/05/25 00:04:37;;;;;;;;;2.75;0.00;;;;;9.70;64.11;100935.88;5061760;28;45256;-53
2021/05/25 00:07:02;;;;;;;;;2.00;2.00;;;;;9.78;63.98;100976.94;5062120;28;45177;-50
2021/05/25 00:09:28;;;;;;;;;0.50;0.50;;;;;9.74;64.03;100962.97;5061658;28;45229;-50
2021/05/25 00:11:53;;;;;;;;;0.75;0.75;;;;;9.74;63.79;100952.47;5061751;28;45211;-50
2021/05/25 00:14:20;;;;;;;;;1.00;1.00;;;;;9.68;63.72;100957.75;5080999;28;45192;-51
2021/05/25 00:16:48;;;;;;;;;2.00;2.00;;;;;9.72;63.82;100968.22;5079533;27;45252;-52
2021/05/25 00:19:13;;;;;;;;;2.25;0.50;;;;;9.75;63.54;100985.72;5075597;28;45275;-49
2021/05/25 00:21:39;;;;;;;;;1.75;0.25;;;;;9.74;63.44;100971.69;5061443;28;45386;-50
2021/05/25 00:24:04;;;;;;;;;1.00;1.00;;;;;9.75;63.24;100977.84;5068184;28;45430;-50
2021/05/25 00:26:30;;;;;;;;;0.75;0.75;;;;;9.72;63.55;100985.72;5068790;27;45228;-51
2021/05/25 00:28:55;;;;;;;;;5.75;2.00;;;;;9.63;63.22;100981.41;5067849;28;45405;-48
2021/05/25 00:31:20;;;;;;;;;4.50;1.25;;;;;9.72;63.14;100980.47;5081642;28;46059;-52
2021/05/25 00:33:46;;;;;;;;;0.00;0.00;;;;;9.69;63.16;101001.50;5061753;28;45381;-51
2021/05/25 00:36:11;;;;;;;;;0.00;0.00;;;;;9.73;62.93;100993.56;5061736;28;45368;-49
2021/05/25 00:38:38;;;;;;;;;2.00;0.00;;;;;9.69;62.99;100997.09;5068332;28;45306;-50
2021/05/25 00:41:04;;;;;;;;;2.25;0.50;;;;;9.64;63.22;101022.50;5083649;27;47063;-51
2021/05/25 00:43:29;;;;;;;;;0.00;0.00;;;;;9.57;63.09;101012.91;5074310;27;45461;-50
2021/05/25 00:45:55;;;;;;;;;0.50;0.50;;;;;9.56;63.01;101012.06;5061525;28;45249;-51
2021/05/25 00:48:20;;;;;;;;;1.00;1.00;;;;;9.58;63.13;101026.06;5061525;28;45177;-49
2021/05/25 00:50:46;;;;;;;;;2.00;0.00;;;;;9.67;62.82;101019.00;5074866;28;46176;-52
2021/05/25 00:53:11;;;;;;;;;0.50;0.50;;;;;9.66;62.76;101023.38;5064244;28;45237;-51
2021/05/25 00:55:38;;;;;;;;;0.00;0.00;;;;;9.68;62.53;101042.59;5067655;27;45216;-52
2021/05/25 00:58:07;;;;;;;;;0.25;0.00;;;;;9.69;62.60;101056.59;5078073;28;45508;-50
2021/05/25 01:00:37;;;;;;;;;0.00;0.00;;;;;9.65;62.83;101040.00;5069179;27;46104;-52
2021/05/25 01:03:02;;;;;;;;;2.00;0.00;;;;;9.68;62.41;101047.84;5060800;28;45411;-51
2021/05/25 01:05:28;;;;;;;;;1.00;0.00;;;;;9.75;62.81;101059.19;5061305;28;45240;-52
2021/05/25 01:07:53;;;;;;;;;0.25;0.00;;;;;9.78;62.78;101048.66;5076552;28;45529;-52
2021/05/25 01:12:57;;;;;;;;;1.25;0.75;;;;;9.71;62.50;101047.84;5081097;27;45240;-50
2021/05/25 01:15:23;;;;;;;;;0.00;0.00;;;;;9.72;62.76;101062.72;5066337;27;45418;-52
2021/05/25 01:17:51;;;;;;;;;0.00;0.00;;;;;9.79;62.51;101054.81;5079300;28;45151;-50
2021/05/25 01:20:18;;;;;;;;;2.25;1.00;;;;;9.83;62.66;101059.16;5066836;27;45421;-53
2021/05/25 01:22:43;;;;;;;;;0.00;0.00;;;;;9.89;62.49;101064.38;5079543;28;45422;-51
2021/05/25 01:25:11;;;;;;;;;2.00;1.00;;;;;9.90;62.43;101066.09;5076344;27;45426;-52
2021/05/25 01:27:37;;;;;;;;;0.00;0.00;;;;;9.81;62.35;101068.78;5060653;28;45414;-49
2021/05/25 01:30:04;;;;;;;;;0.00;0.00;;;;;9.76;62.62;101064.44;5060427;28;45233;-52
2021/05/25 01:32:29;;;;;;;;;0.00;0.00;;;;;9.73;62.79;101064.44;5060698;28;45239;-48
2021/05/25 01:34:54;;;;;;;;;0.00;0.00;;;;;9.77;62.47;101073.16;5060667;28;45229;-48
2021/05/25 01:37:22;;;;;;;;;2.25;0.50;;;;;9.73;62.78;101080.19;5060498;28;45628;-52
2021/05/25 01:39:52;;;;;;;;;0.00;0.00;;;;;9.68;62.59;101074.09;5060472;28;46006;-53
2021/05/25 01:42:18;;;;;;;;;0.75;0.00;;;;;9.73;63.31;101093.31;5060256;28;45452;-52
2021/05/25 01:44:43;;;;;;;;;0.25;0.25;;;;;9.75;63.87;101114.31;5077651;28;45161;-48
2021/05/25 01:47:08;;;;;;;;;0.75;0.75;;;;;9.70;64.25;101114.31;5070221;27;45284;-52
2021/05/25 01:49:34;;;;;;;;;0.00;0.00;;;;;9.73;64.68;101127.41;5063846;28;45331;-50
2021/05/25 01:51:59;;;;;;;;;0.75;0.75;;;;;9.71;65.13;101118.69;5070188;27;45302;-51
2021/05/25 01:54:24;;;;;;;;;0.00;0.00;;;;;9.72;65.17;101124.81;5069546;28;45412;-51
2021/05/25 01:56:50;;;;;;;;;1.25;0.25;;;;;9.68;65.59;101130.97;5068564;28;45220;-51
2021/05/25 01:59:15;;;;;;;;;0.25;0.25;;;;;9.69;65.63;101132.72;5080335;28;45206;-53
2021/05/25 02:01:40;;;;;;;;;0.00;0.00;;;;;9.70;65.49;101137.94;5072223;27;45205;-51
2021/05/25 02:04:06;;;;;;;;;0.00;0.00;;;;;9.68;65.77;101141.47;5060336;28;45254;-52
2021/05/25 02:06:31;;;;;;;;;0.00;0.00;;;;;9.66;65.70;101144.09;5060267;28;45563;-49
2021/05/25 02:08:57;;;;;;;;;0.00;0.00;;;;;9.59;65.60;101145.84;5059666;28;46144;-53
2021/05/25 02:11:23;;;;;;;;;0.00;0.00;;;;;9.46;66.35;101146.78;5060195;28;45332;-52
2021/05/25 02:13:49;;;;;;;;;0.00;0.00;;;;;9.41;66.15;101146.78;5059830;28;45297;-51
2021/05/25 02:16:17;;;;;;;;;1.00;0.00;;;;;9.43;66.25;101142.41;5065390;28;45340;-51
2021/05/25 02:18:45;;;;;;;;;0.00;0.00;;;;;9.38;66.26;101145.91;5078204;27;46198;-48
2021/05/25 02:21:21;;;;;;;;;0.00;0.00;;;;;9.23;66.61;101146.81;5059861;28;45235;-51
2021/05/25 02:23:48;;;;;;;;;0.00;0.00;;;;;9.21;66.75;101154.72;5062612;28;45335;-53
2021/05/25 02:26:13;;;;;;;;;0.00;0.00;;;;;9.08;67.14;101147.72;5085039;27;45478;-50
2021/05/25 02:28:39;;;;;;;;;0.00;0.00;;;;;8.92;67.38;101136.41;5059572;28;45310;-52
2021/05/25 02:31:06;;;;;;;;;0.00;0.00;;;;;8.96;67.60;101146.00;5059821;28;45350;-50
2021/05/25 02:33:32;;;;;;;;;0.50;0.00;;;;;8.98;67.97;101151.25;5059890;28;45473;-50
2021/05/25 02:35:59;;;;;;;;;0.00;0.00;;;;;8.92;68.16;101153.00;5059783;28;45174;-49
2021/05/25 02:38:26;;;;;;;;;0.00;0.00;;;;;8.94;68.25;101153.88;5059306;28;46198;-51
2021/05/25 02:40:51;;;;;;;;;0.00;0.00;;;;;8.96;68.19;101160.88;5059651;28;45269;-53
2021/05/25 02:43:19;;;;;;;;;0.00;0.00;;;;;9.03;68.01;101153.00;5075231;28;45230;-53
2021/05/25 02:45:45;;;;;;;;;0.25;0.25;;;;;9.08;68.23;101166.09;5059776;28;45538;-51
2021/05/25 02:48:11;;;;;;;;;0.50;0.50;;;;;9.02;68.43;101169.59;5059319;28;45952;-52
2021/05/25 02:50:37;;;;;;;;;0.50;0.00;;;;;9.13;68.13;101163.47;5072395;28;45441;-51
2021/05/25 02:53:02;;;;;;;;;0.00;0.00;;;;;9.20;67.87;101165.22;5061426;28;45424;-53
2021/05/25 02:55:31;;;;;;;;;1.50;1.00;;;;;9.30;67.75;101160.81;5067667;27;45511;-50
2021/05/25 02:57:58;;;;;;;;;0.25;0.25;;;;;9.33;67.51;101171.28;5072761;28;47224;-53
2021/05/25 03:00:26;;;;;;;;;0.00;0.00;;;;;9.32;67.44;101165.19;5059464;28;45342;-53
2021/05/25 03:02:52;;;;;;;;;0.75;0.00;;;;;9.33;67.52;101173.91;5061995;28;45373;-53
2021/05/25 03:05:22;;;;;;;;;0.00;0.00;;;;;9.33;67.90;101179.16;5063000;28;45418;-52
2021/05/25 03:07:48;;;;;;;;;2.00;1.00;;;;;9.27;67.87;101180.06;5062564;28;46149;-53
2021/05/25 03:10:16;;;;;;;;;1.50;1.00;;;;;9.29;68.05;101170.41;5062756;28;45397;-52
2021/05/25 03:12:42;;;;;;;;;0.50;0.50;;;;;9.28;68.29;101181.78;5062732;28;45282;-53
2021/05/25 03:15:12;;;;;;;;;2.00;1.75;;;;;9.22;68.53;101187.03;5062675;28;45470;-53
2021/05/25 03:17:38;;;;;;;;;1.75;1.75;;;;;9.25;68.40;101185.28;5079474;28;45375;-54
2021/05/25 03:20:06;;;;;;;;;3.00;1.00;;;;;9.24;68.81;101185.28;5069637;27;45327;-55
2021/05/25 03:22:32;;;;;;;;;2.25;1.00;;;;;9.27;68.38;101193.19;5082812;27;45415;-52
2021/05/25 03:24:57;;;;;;;;;1.00;0.75;;;;;9.27;68.82;101194.03;5079629;28;45231;-51
2021/05/25 03:27:24;;;;;;;;;2.75;1.00;;;;;9.29;68.71;101195.78;5062440;28;46247;-53
2021/05/25 03:29:49;;;;;;;;;5.75;1.50;;;;;9.33;68.83;101200.16;5078410;27;45334;-54
2021/05/25 03:32:15;;;;;;;;;3.00;2.00;;;;;9.30;69.19;101203.66;5083024;28;45207;-54
2021/05/25 03:34:40;;;;;;;;;3.50;1.00;;;;;9.27;68.86;101207.16;5069213;27;45162;-54
2021/05/25 03:37:05;;;;;;;;;2.50;1.00;;;;;9.31;69.00;101204.50;5062488;28;45260;-55
2021/05/25 03:39:31;;;;;;;;;1.00;1.00;;;;;9.29;69.20;101201.03;5077811;28;45310;-54
2021/05/25 03:41:59;;;;;;;;;4.00;1.75;;;;;9.34;69.24;101199.28;5062627;28;45148;-52
2021/05/25 03:44:24;;;;;;;;;2.75;1.25;;;;;9.25;68.91;101206.25;5077664;27;45492;-53
2021/05/25 03:46:50;;;;;;;;;2.00;2.00;;;;;9.24;69.18;101198.41;5062211;28;46024;-52
2021/05/25 03:49:15;;;;;;;;;2.50;1.00;;;;;9.22;69.29;101208.91;5079365;28;45471;-52
2021/05/25 03:51:40;;;;;;;;;2.00;1.00;;;;;9.17;69.31;101201.91;5074948;27;45477;-53
2021/05/25 03:54:14;;;;;;;;;4.00;2.00;;;;;9.15;69.25;101214.16;5071626;28;45248;-53
2021/05/25 03:56:53;;;;;;;;;3.00;1.00;;;;;9.10;69.53;101233.38;5068575;28;45377;-54
2021/05/25 03:59:18;;;;;;;;;2.25;2.00;;;;;9.16;69.46;101223.78;5084459;27;45768;-54
2021/05/25 04:01:44;;;;;;;;;1.50;1.50;;;;;9.11;69.23;101221.16;5073987;27;45976;-54
2021/05/25 04:04:10;;;;;;;;;3.00;2.00;;;;;9.11;69.86;101229.03;5077660;28;45496;-54
2021/05/25 04:06:36;;;;;;;;;3.00;2.25;;;;;9.10;69.82;101230.75;5077642;27;45479;-53
2021/05/25 04:09:01;;;;;;;;;4.50;2.00;;;;;9.17;69.53;101241.25;5061577;28;45386;-54
2021/05/25 04:11:27;;;;;;;;;2.00;2.00;;;;;9.18;69.30;101243.88;5062091;28;45292;-54
2021/05/25 04:13:52;;;;;;;;;1.00;1.00;;;;;9.16;69.51;101248.25;5061444;28;45495;-52
2021/05/25 04:16:17;;;;;;;;;2.75;1.00;;;;;9.11;69.55;101248.22;5067470;27;45851;-53
2021/05/25 04:18:43;;;;;;;;;3.75;2.00;;;;;9.11;69.49;101256.09;5080193;27;45448;-54
2021/05/25 04:21:10;;;;;;;;;2.00;2.00;;;;;9.13;69.78;101270.97;5061882;28;45391;-54
2021/05/25 04:23:36;;;;;;;;;1.00;1.00;;;;;9.15;69.80;101269.22;5064052;28;46229;-52
2021/05/25 04:26:02;;;;;;;;;2.00;0.75;;;;;9.17;69.41;101267.47;5089028;27;48360;-54
2021/05/25 04:28:27;;;;;;;;;1.75;1.25;;;;;9.21;69.71;101267.47;5061345;28;45328;-53
2021/05/25 04:30:52;;;;;;;;;0.75;0.75;;;;;9.24;69.59;101274.47;5061736;28;45200;-54
2021/05/25 04:33:18;;;;;;;;;2.75;1.50;;;;;9.26;69.48;101277.97;5061635;28;45317;-54
2021/05/25 04:35:43;;;;;;;;;3.25;2.00;;;;;9.30;69.30;101284.94;5061610;28;45224;-53
2021/05/25 04:38:09;;;;;;;;;2.75;1.25;;;;;9.32;69.16;101295.44;5061229;28;45231;-54
2021/05/25 04:40:40;;;;;;;;;3.00;2.00;;;;;9.34;69.06;101291.94;5061809;28;45218;-54
2021/05/25 04:43:06;;;;;;;;;1.00;1.00;;;;;9.29;69.03;101284.97;5061223;28;45892;-55
2021/05/25 04:45:31;;;;;;;;;2.00;2.00;;;;;9.25;68.86;101289.34;5061306;28;46026;-54
2021/05/25 04:47:57;;;;;;;;;1.75;1.00;;;;;9.19;68.98;101294.56;5076911;28;45414;-55
2021/05/25 04:50:22;;;;;;;;;1.00;1.00;;;;;9.15;69.18;101300.69;5072294;28;45327;-55
2021/05/25 04:52:49;;;;;;;;;2.50;1.00;;;;;9.20;68.92;101305.06;5083409;27;45423;-54
2021/05/25 04:55:16;;;;;;;;;2.25;2.25;;;;;9.17;69.13;101312.03;5059842;28;47249;-55
2021/05/25 04:57:42;;;;;;;;;4.50;2.75;;;;;9.15;69.06;101316.44;5061442;28;46858;-54
2021/05/25 05:00:11;;;;;;;;;4.00;2.00;;;;;9.15;69.30;101321.69;5072852;27;45297;-55
2021/05/25 05:02:36;;;;;;;;;4.00;2.25;;;;;9.07;69.05;101321.66;5061076;28;45302;-55
2021/05/25 05:05:02;;;;;;;;;2.50;1.50;;;;;9.09;69.39;101335.63;5060906;28;46285;-55
2021/05/25 05:07:27;;;;;;;;;4.25;4.00;;;;;9.05;69.52;101326.03;5060853;28;45376;-53
2021/05/25 05:09:52;;;;;;;;;4.50;3.00;;;;;9.00;69.59;101325.16;5061164;28;45949;-56
2021/05/25 05:12:18;;;;;;;;;2.75;2.00;;;;;8.99;69.50;101334.75;5079677;28;45562;-55
2021/05/25 05:14:43;;;;;;;;;2.00;2.00;;;;;9.04;69.51;101334.75;5072132;27;45246;-54
2021/05/25 05:17:09;;;;;;;;;3.00;2.00;;;;;9.06;69.09;101341.75;5079727;28;45362;-52
2021/05/25 05:19:34;;;;;;;;;3.25;2.00;;;;;9.05;69.58;101344.38;5072192;27;45375;-55
2021/05/25 05:22:00;;;;;;;;;2.75;2.00;;;;;9.04;69.47;101343.50;5060677;28;45157;-53
2021/05/25 05:24:25;;;;;;;;;2.75;2.00;;;;;9.00;69.46;101348.75;5069441;28;46209;-55
2021/05/25 05:26:50;;;;;;;;;1.25;1.25;;;;;8.98;69.59;101350.47;5064941;27;45234;-54
2021/05/25 05:29:16;;;;;;;;;6.25;2.50;;;;;9.10;69.36;101368.84;5076472;28;45942;-55
2021/05/25 05:31:41;;;;;;;;;3.00;3.00;;;;;9.19;69.14;101363.63;5076246;27;45251;-56
2021/05/25 05:34:07;;;;;;;;;2.00;2.00;;;;;9.20;69.07;101367.13;5069832;28;45426;-56
2021/05/25 05:36:32;;;;;;;;;2.00;2.00;;;;;9.19;68.83;101363.63;5078175;28;45446;-54
2021/05/25 05:38:58;;;;;;;;;4.25;1.00;;;;;9.20;69.06;101360.13;5060590;28;45335;-56
2021/05/25 05:41:23;;;;;;;;;4.75;2.00;;;;;9.25;68.94;101371.50;5076160;27;45409;-54
2021/05/25 05:43:49;;;;;;;;;2.00;1.00;;;;;9.23;69.10;101375.00;5060306;28;46161;-56
2021/05/25 05:46:15;;;;;;;;;2.00;1.00;;;;;9.26;68.84;101375.88;5060351;28;45406;-55
2021/05/25 05:48:40;;;;;;;;;2.00;2.00;;;;;9.36;68.82;101381.16;5076184;28;45295;-54
2021/05/25 05:51:06;;;;;;;;;4.00;2.25;;;;;9.49;68.68;101375.03;5074568;28;45393;-55
2021/05/25 05:53:31;;;;;;;;;3.25;3.00;;;;;9.59;68.43;101389.03;5066033;28;45485;-56
2021/05/25 05:55:57;;;;;;;;;6.25;3.50;;;;;9.64;68.05;101384.66;5064911;27;45398;-58
2021/05/25 05:58:22;;;;;;;;;4.00;2.00;;;;;9.67;67.79;101387.28;5073399;27;45244;-58
2021/05/25 06:00:47;;;;;;;;;2.50;2.00;;;;;9.64;67.88;101383.78;5078629;28;45386;-51
2021/05/25 06:03:13;;;;;;;;;4.00;2.00;;;;;9.67;68.09;101392.53;5060206;28;46458;-53
2021/05/25 06:05:39;;;;;;;;;1.00;1.00;;;;;9.69;67.93;101393.38;5060114;28;45262;-51
2021/05/25 06:08:07;;;;;;;;;4.00;3.00;;;;;9.74;67.48;101399.50;5060127;28;45465;-52
2021/05/25 06:10:35;;;;;;;;;4.75;2.00;;;;;9.79;67.69;101417.03;5059821;28;45543;-53
2021/05/25 06:13:00;;;;;;;;;3.50;3.50;;;;;9.77;67.37;101396.00;5059895;28;45465;-55
2021/05/25 06:15:26;;;;;;;;;4.00;2.50;;;;;9.80;67.32;101398.66;5059900;28;45419;-55
2021/05/25 06:17:52;;;;;;;;;4.50;2.00;;;;;9.83;67.49;101408.28;5078959;28;45506;-54
2021/05/25 06:20:18;;;;;;;;;4.00;1.00;;;;;9.90;67.46;101407.41;5066246;28;45553;-53
2021/05/25 06:22:44;;;;;;;;;2.25;1.00;;;;;10.00;67.37;101410.88;5079859;28;46041;-53
2021/05/25 06:25:11;;;;;;;;;3.00;2.00;;;;;10.00;67.06;101401.25;5075438;27;45397;-51
2021/05/25 06:27:37;;;;;;;;;2.75;2.00;;;;;10.07;67.33;101407.38;5059935;28;45381;-53
2021/05/25 06:30:06;;;;;;;;;5.00;1.50;;;;;10.18;67.18;101420.50;5059694;28;45462;-52
2021/05/25 06:32:31;;;;;;;;;2.00;2.00;;;;;10.24;66.40;101410.84;5059821;28;46737;-53
2021/05/25 06:34:56;;;;;;;;;4.00;3.00;;;;;10.39;66.73;101417.84;5059614;28;45329;-49
2021/05/25 06:37:22;;;;;;;;;2.50;0.75;;;;;10.48;66.39;101419.56;5078753;28;45318;-51
2021/05/25 06:39:47;;;;;;;;;3.50;2.00;;;;;10.53;65.83;101420.44;5063555;28;45386;-51
2021/05/25 06:42:13;;;;;;;;;4.00;2.75;;;;;10.62;65.51;101443.19;5063186;27;45414;-53
2021/05/25 06:44:39;;;;;;;;;3.25;2.00;;;;;10.48;65.46;101426.59;5063367;28;45450;-51
2021/05/25 06:47:04;;;;;;;;;1.75;1.00;;;;;10.54;65.71;101431.81;5063591;28;45561;-50
2021/05/25 06:49:30;;;;;;;;;1.75;1.75;;;;;10.63;65.64;101437.06;5066598;28;45203;-54
2021/05/25 06:51:55;;;;;;;;;4.75;1.75;;;;;10.68;65.53;101437.91;5074267;27;45339;-53
2021/05/25 06:54:21;;;;;;;;;3.00;2.00;;;;;10.78;65.24;101437.84;5073475;28;45407;-53
2021/05/25 06:56:47;;;;;;;;;1.50;1.50;;;;;10.85;64.72;101439.59;5070883;28;45270;-50
2021/05/25 06:59:12;;;;;;;;;3.00;2.00;;;;;10.94;64.33;101443.94;5068857;27;45477;-49
2021/05/25 07:01:37;;;;;;;;;1.75;1.75;;;;;10.93;64.52;101432.56;5061744;28;46032;-50
2021/05/25 07:04:03;;;;;;;;;2.25;1.00;;;;;11.00;64.46;101439.50;5062994;28;45393;-50
2021/05/25 07:06:28;;;;;;;;;2.50;1.50;;;;;11.12;63.82;101443.84;5078904;28;45311;-49
2021/05/25 07:08:54;;;;;;;;;4.00;2.00;;;;;11.18;64.26;101445.56;5078304;28;45435;-51
2021/05/25 07:11:20;;;;;;;;;1.75;1.75;;;;;11.27;63.73;101436.75;5062892;28;45322;-51
2021/05/25 07:13:46;;;;;;;;;3.25;0.00;;;;;11.20;63.14;101452.56;5062696;28;45345;-52
2021/05/25 07:16:13;;;;;;;;;4.25;2.00;;;;;11.28;63.28;101451.66;5083478;27;45493;-48
2021/05/25 07:18:38;;;;;;;;;5.75;2.75;;;;;11.26;63.08;101446.41;5082008;27;45491;-50
2021/05/25 07:21:03;;;;;;;;;3.00;2.00;;;;;11.32;62.65;101461.28;5062589;28;45299;-50
2021/05/25 07:23:29;;;;;;;;;3.75;1.50;;;;;11.29;62.43;101448.16;5077257;27;45300;-51
2021/05/25 07:25:54;;;;;;;;;5.00;2.75;;;;;11.33;62.55;101441.97;5070986;28;45425;-50
2021/05/25 07:28:19;;;;;;;;;2.00;2.00;;;;;11.41;62.63;101447.19;5067954;27;45452;-50
2021/05/25 07:30:47;;;;;;;;;4.00;2.00;;;;;11.41;62.58;101455.06;5078155;28;46915;-53
2021/05/25 07:33:13;;;;;;;;;4.50;2.00;;;;;11.54;62.57;101456.75;5062499;27;45350;-49
2021/05/25 07:35:39;;;;;;;;;2.25;1.00;;;;;11.60;62.07;101459.34;5062611;28;45297;-50
2021/05/25 07:38:04;;;;;;;;;2.50;2.00;;;;;11.74;61.08;101461.03;5062123;28;45310;-52
2021/05/25 07:40:29;;;;;;;;;4.50;2.00;;;;;11.75;60.97;101450.47;5078031;27;46836;-50
2021/05/25 07:42:55;;;;;;;;;3.00;0.25;;;;;11.60;60.21;101440.91;5062229;28;45314;-50
2021/05/25 07:45:21;;;;;;;;;2.00;2.00;;;;;11.77;60.45;101453.06;5062790;28;45314;-53
2021/05/25 07:47:46;;;;;;;;;3.00;2.50;;;;;11.85;60.79;101457.41;5077170;27;45473;-52
2021/05/25 07:50:13;;;;;;;;;2.50;2.50;;;;;12.05;60.31;101458.16;5081255;28;48029;-52
2021/05/25 07:52:57;;;;;;;;;2.00;1.25;;;;;12.21;59.77;101465.03;5065223;28;45247;-50
2021/05/25 07:55:28;;;;;;;;;1.00;1.00;;;;;12.39;58.91;101474.53;5062242;28;45239;-52
2021/05/25 07:57:54;;;;;;;;;5.25;2.50;;;;;12.57;58.39;101467.31;5075625;28;45524;-51
2021/05/25 08:00:21;;;;;;;;;1.50;1.25;;;;;12.74;58.09;101459.19;5061971;28;45335;-49
2021/05/25 08:02:47;;;;;;;;;1.00;1.00;;;;;13.02;56.88;101472.94;5061931;28;45405;-54
2021/05/25 08:05:14;;;;;;;;;5.00;2.00;;;;;13.18;56.41;101484.16;5062119;28;45480;-52
2021/05/25 08:07:40;;;;;;;;;3.50;1.00;;;;;13.23;55.95;101477.06;5077160;27;45263;-53
2021/05/25 08:10:07;;;;;;;;;4.00;2.00;;;;;13.30;55.51;101472.56;5061744;28;45337;-52
2021/05/25 08:12:33;;;;;;;;;2.50;2.50;;;;;13.32;55.53;101487.50;5060406;28;45421;-52
2021/05/25 08:15:01;;;;;;;;;3.25;1.75;;;;;13.46;55.30;101478.53;5062073;28;45350;-49
2021/05/25 08:20:04;;;;;;;;;1.00;1.00;;;;;13.87;54.92;101466.44;5069889;27;45260;-50
2021/05/25 08:22:30;;;;;;;;;2.00;1.00;;;;;14.16;53.79;101477.44;5061409;28;45216;-51
2021/05/25 08:24:56;;;;;;;;;2.50;2.00;;;;;14.44;52.08;101488.41;5075217;28;45366;-47
2021/05/25 08:27:21;;;;;;;;;7.00;5.50;;;;;14.58;51.76;101478.41;5062195;27;45501;-52
2021/05/25 08:29:47;;;;;;;;;2.00;1.00;;;;;14.83;51.90;101485.03;5061589;28;45219;-52
2021/05/25 08:32:12;;;;;;;;;1.25;1.25;;;;;15.02;50.52;101480.22;5080587;28;45286;-53
2021/05/25 08:34:37;;;;;;;;;0.00;0.00;;;;;15.02;50.70;101501.41;5082372;28;45486;-50
2021/05/25 08:37:03;;;;;;;;;2.00;2.00;;;;;15.05;50.69;101494.28;5083449;27;45571;-54
2021/05/25 08:39:34;;;;;;;;;1.75;1.75;;;;;15.11;50.31;101495.94;5069374;27;45344;-47
2021/05/25 08:42:00;;;;;;;;;4.50;2.00;;;;;15.20;48.82;101521.34;5061308;28;45295;-51
2021/05/25 08:44:25;;;;;;;;;1.75;1.75;;;;;15.26;49.90;101490.28;5061502;28;45238;-48
2021/05/25 08:46:52;;;;;;;;;4.25;2.00;;;;;15.30;49.38;101492.91;5061420;28;45203;-49
2021/05/25 08:49:18;;;;;;;;;3.25;0.00;;;;;15.31;49.46;101492.84;5063124;28;46691;-51
2021/05/25 08:51:43;;;;;;;;;4.00;1.00;;;;;15.15;49.11;101460.53;5081411;28;45423;-47
2021/05/25 08:54:09;;;;;;;;;3.25;2.00;;;;;15.29;48.65;101499.94;5076932;28;45471;-51
2021/05/25 08:56:35;;;;;;;;;5.50;2.00;;;;;15.26;48.41;101486.78;5067065;28;45372;-50
2021/05/25 08:59:00;;;;;;;;;1.00;0.25;;;;;15.36;48.47;101490.13;5067440;27;45938;-51
2021/05/25 09:01:26;;;;;;;;;0.25;0.25;;;;;15.54;47.93;101473.78;5061056;28;45407;-51
2021/05/25 09:04:01;;;;;;;;;2.50;1.75;;;;;15.71;47.36;101485.75;5076714;27;45498;-49
2021/05/25 09:06:36;;;;;;;;;2.75;0.00;;;;;15.96;46.92;101487.84;5061047;28;45341;-48
2021/05/25 09:09:10;;;;;;;;;1.00;1.00;;;;;15.92;45.61;101482.63;5060519;28;45399;-50
2021/05/25 09:12:09;;;;;;;;;2.00;1.00;;;;;15.70;45.27;101497.28;5060704;28;45368;-48
2021/05/25 09:14:55;;;;;;;;;3.25;1.75;;;;;15.88;46.59;101482.75;5096373;27;45306;-49
2021/05/25 09:17:24;;;;;;;;;1.75;1.00;;;;;16.06;45.99;101490.25;5077111;27;45625;-50
2021/05/25 09:19:51;;;;;;;;;1.00;1.00;;;;;15.97;43.81;101482.50;5069020;27;46847;-52
2021/05/25 09:22:36;;;;;;;;;1.25;1.25;;;;;16.11;45.23;101481.28;5059027;28;45382;-53
2021/05/25 09:25:09;;;;;;;;;4.75;2.50;;;;;16.04;45.65;101493.84;5074713;28;45519;-52
2021/05/25 09:27:41;;;;;;;;;2.00;2.00;;;;;15.93;46.44;101491.44;5076388;28;45849;-54
2021/05/25 09:30:15;;;;;;;;;1.00;1.00;;;;;15.85;46.54;101482.84;5060387;28;46287;-50
2021/05/25 09:33:05;;;;;;;;;2.00;2.00;;;;;16.13;46.68;101490.94;5060850;28;45172;-49
2021/05/25 09:35:40;;;;;;;;;4.75;2.50;;;;;16.23;45.60;101496.91;5068144;28;45342;-53
2021/05/25 09:38:10;;;;;;;;;3.00;2.00;;;;;16.29;45.40;101496.75;5064967;27;45364;-54
2021/05/25 09:40:37;;;;;;;;;4.75;2.00;;;;;16.27;44.52;101493.25;5060407;28;45289;-51
2021/05/25 09:43:15;;;;;;;;;3.25;1.75;;;;;16.37;45.06;101484.13;5060314;28;45287;-49
2021/05/25 09:45:59;;;;;;;;;3.00;3.00;;;;;16.61;44.36;101483.53;5060614;28;45272;-51
2021/05/25 09:48:30;;;;;;;;;5.00;2.00;;;;;16.85;44.60;101477.50;5060488;28;45370;-51
2021/05/25 09:50:55;;;;;;;;;1.00;1.00;;;;;17.01;44.19;101471.78;5089708;27;46949;-55
2021/05/25 09:53:28;;;;;;;;;2.00;1.50;;;;;17.21;44.20;101453.47;5078987;28;45184;-49
2021/05/25 09:55:59;;;;;;;;;1.00;1.00;;;;;17.19;43.72;101471.25;5064765;27;45337;-50
2021/05/25 09:58:35;;;;;;;;;3.25;2.00;;;;;16.92;44.09;101443.72;5072556;27;45374;-49
2021/05/25 10:01:03;;;;;;;;;2.25;1.00;;;;;16.65;43.99;101466.59;5059969;28;46312;-50
2021/05/25 10:03:31;;;;;;;;;2.00;2.00;;;;;16.88;43.73;101461.50;5060193;28;45293;-52
2021/05/25 10:06:00;;;;;;;;;2.50;2.50;;;;;16.93;43.66;101447.25;5060256;28;45197;-54
2021/05/25 10:08:25;;;;;;;;;2.50;1.00;;;;;17.13;43.05;101465.22;5070383;28;45393;-49
2021/05/25 10:10:53;;;;;;;;;2.25;2.00;;;;;17.26;42.76;101463.97;5075903;28;45498;-52
2021/05/25 10:13:20;;;;;;;;;1.25;0.00;;;;;17.07;41.79;101455.69;5059960;28;45311;-49
2021/05/25 10:15:49;;;;;;;;;3.75;1.50;;;;;16.88;42.38;101458.84;5061172;28;45258;-53
2021/05/25 10:20:43;;;;;;;;;2.50;0.00;;;;;16.63;42.35;101471.06;5059957;28;46278;-53
2021/05/25 10:23:09;;;;;;;;;2.75;2.00;;;;;16.22;43.51;101487.19;5060148;28;45261;-51
2021/05/25 10:25:38;;;;;;;;;3.25;2.25;;;;;15.94;44.09;101477.28;5073365;28;45449;-50
2021/05/25 10:28:12;;;;;;;;;1.75;0.50;;;;;15.52;45.50;101507.41;5059866;28;45347;-52
2021/05/25 10:30:49;;;;;;;;;3.25;1.00;;;;;15.39;47.45;101504.13;5067047;28;46229;-54
2021/05/25 10:33:17;;;;;;;;;6.50;5.00;;;;;15.47;47.47;101498.69;5064235;27;45340;-51
2021/05/25 10:35:49;;;;;;;;;1.00;1.00;;;;;15.47;47.36;101493.38;5060093;28;45493;-51
2021/05/25 10:38:15;;;;;;;;;0.75;0.75;;;;;15.50;47.76;101501.25;5059438;28;45311;-51
2021/05/25 10:40:45;;;;;;;;;1.00;1.00;;;;;15.35;48.65;101513.06;5059593;28;46177;-53
2021/05/25 10:43:35;;;;;;;;;1.00;1.00;;;;;15.17;49.24;101505.50;5058128;28;45739;-50
2021/05/25 10:46:13;;;;;;;;;1.00;1.00;;;;;15.04;49.29;101504.91;5059650;28;45329;-50
2021/05/25 10:51:50;;;;;;;;;2.75;2.00;;;;;14.55;53.01;101534.03;5066210;28;46114;-55
2021/05/25 10:54:30;;;;;;;;;2.00;1.00;;;;;14.30;54.50;101538.84;5073689;27;45413;-53
2021/05/25 10:56:57;;;;;;;;;1.75;1.75;;;;;14.20;55.24;101547.84;5068428;28;45323;-49
2021/05/25 10:59:23;;;;;;;;;0.00;0.00;;;;;14.24;55.61;101560.13;5063770;27;45223;-52
2021/05/25 11:01:56;;;;;;;;;3.50;2.00;;;;;14.27;55.34;101563.56;5059278;28;46903;-53
2021/05/25 11:04:23;;;;;;;;;4.50;1.00;;;;;14.34;56.14;101550.25;5059370;28;45255;-54
2021/05/25 11:06:49;;;;;;;;;2.00;2.00;;;;;14.69;55.01;101543.50;5059355;28;45346;-53
2021/05/25 11:09:27;;;;;;;;;1.50;1.50;;;;;14.79;54.25;101537.13;5059165;28;45414;-53
2021/05/25 11:12:15;;;;;;;;;2.25;0.50;;;;;15.18;53.14;101550.50;5058991;28;46989;-53
2021/05/25 11:15:15;;;;;;;;;2.00;1.00;;;;;15.73;52.77;101537.81;5063811;28;45276;-53
2021/05/25 11:17:45;;;;;;;;;1.50;1.00;;;;;15.89;52.25;101541.00;5072009;28;45392;-54
2021/05/25 11:20:54;;;;;;;;;1.25;1.00;;;;;16.24;50.56;101533.13;5058951;28;45324;-50
2021/05/25 11:23:43;;;;;;;;;1.00;1.00;;;;;17.17;50.39;101536.81;5061733;28;45452;-50
2021/05/25 11:26:09;;;;;;;;;2.25;1.25;;;;;18.24;46.78;101522.88;5082973;28;45282;-52
2021/05/25 11:29:12;;;;;;;;;2.25;2.00;;;;;18.51;45.23;101546.78;5077417;28;45333;-52
2021/05/25 11:31:39;;;;;;;;;3.00;2.00;;;;;19.04;44.29;101521.84;5062283;28;45322;-52
2021/05/25 11:34:05;;;;;;;;;2.25;2.00;;;;;19.52;43.64;101524.47;5062555;28;45427;-48
2021/05/25 11:36:32;;;;;;;;;2.75;1.50;;;;;19.88;43.34;101515.97;5062521;28;45240;-49
2021/05/25 11:38:57;;;;;;;;;0.50;0.50;;;;;20.24;41.30;101526.06;5062508;28;45288;-54
2021/05/25 11:41:23;;;;;;;;;1.50;0.00;;;;;20.08;41.24;101525.81;5060995;28;45973;-53
2021/05/25 11:44:00;;;;;;;;;1.00;1.00;;;;;20.01;40.14;101537.66;5062296;28;46332;-51